Time;durP1;ratioP1;P1;durP2;ratioP2;P2;SDS_P1;SDS_P2;PMS_P1;PMS_P2;Temp;Humidity;BMP_temperature;BMP_pressure;BME280_temperature;BME280_humidity;BME280_pressure;Samples;Min_cycle;Max_cycle;Signal;HPM_P1;HPM_P2
2022/10/13 00:02:08;;;;;;;18.65;12.57;;;10.20;99.90;;;;;;4993326;28;20471;-51
2022/10/13 00:04:33;;;;;;;17.67;12.20;;;10.10;99.90;;;;;;4993667;28;20045;-47
2022/10/13 00:06:59;;;;;;;16.80;13.02;;;10.10;99.90;;;;;;4992459;28;20038;-45
2022/10/13 00:09:24;;;;;;;22.73;12.93;;;10.10;99.90;;;;;;4993645;28;20018;-50
2022/10/13 00:11:50;;;;;;;17.10;12.65;;;10.00;99.90;;;;;;4992126;28;20058;-45
2022/10/13 00:14:15;;;;;;;20.60;12.98;;;10.10;99.90;;;;;;4993138;28;20034;-47
2022/10/13 00:16:41;;;;;;;19.02;12.10;;;10.00;99.90;;;;;;4993574;28;20030;-47
2022/10/13 00:19:06;;;;;;;18.42;12.20;;;10.00;99.90;;;;;;4993391;28;20509;-46
2022/10/13 00:21:32;;;;;;;23.90;13.18;;;10.00;99.90;;;;;;4992308;28;20561;-45
2022/10/13 00:23:57;;;;;;;15.45;11.38;;;10.10;99.90;;;;;;4994738;28;20022;-49
2022/10/13 00:26:24;;;;;;;16.42;11.68;;;10.10;99.90;;;;;;4993150;28;20030;-49
2022/10/13 00:28:50;;;;;;;13.40;10.82;;;10.20;99.90;;;;;;4993172;28;20026;-46
2022/10/13 00:31:24;;;;;;;13.27;11.77;;;10.20;99.90;;;;;;4993140;28;20386;-51
2022/10/13 00:33:51;;;;;;;13.93;10.27;;;10.30;99.90;;;;;;4992943;28;20028;-44
2022/10/13 00:36:18;;;;;;;14.70;11.30;;;10.30;99.90;;;;;;4993145;28;20437;-46
2022/10/13 00:38:43;;;;;;;17.20;12.70;;;10.40;99.90;;;;;;4992910;28;20022;-49
2022/10/13 00:41:09;;;;;;;21.83;12.38;;;10.40;99.90;;;;;;4992760;28;20097;-48
2022/10/13 00:43:52;;;;;;;17.83;12.50;;;10.30;99.90;;;;;;4992543;28;20085;-45
2022/10/13 00:46:19;;;;;;;16.38;12.77;;;10.50;99.90;;;;;;4992630;28;20025;-46
2022/10/13 00:48:45;;;;;;;22.00;13.48;;;10.40;99.90;;;;;;4992847;28;20026;-51
2022/10/13 00:51:15;;;;;;;22.42;14.45;;;10.40;99.90;;;;;;4992607;28;20037;-46
2022/10/13 00:53:40;;;;;;;18.15;13.30;;;10.50;99.90;;;;;;4992643;28;20030;-48
2022/10/13 00:56:09;;;;;;;15.60;11.65;;;10.50;99.90;;;;;;4993117;28;20392;-43
2022/10/13 00:58:38;;;;;;;52.20;34.60;;;10.40;99.90;;;;;;4992902;28;20430;-45
2022/10/13 01:01:04;;;;;;;39.80;26.65;;;10.30;99.90;;;;;;4992842;28;20100;-44
2022/10/13 01:03:30;;;;;;;23.25;14.13;;;10.30;99.90;;;;;;4992986;28;20037;-43
2022/10/13 01:06:00;;;;;;;19.27;12.35;;;10.20;99.90;;;;;;4993009;28;20038;-43
2022/10/13 01:08:27;;;;;;;16.30;11.02;;;10.20;99.90;;;;;;4992864;28;20026;-44
2022/10/13 01:11:23;;;;;;;19.38;12.18;;;10.20;99.90;;;;;;4992233;28;20042;-44
2022/10/13 01:14:22;;;;;;;13.20;10.77;;;10.20;99.90;;;;;;4992225;28;20065;-43
2022/10/13 01:17:28;;;;;;;15.25;11.50;;;10.30;99.90;;;;;;4992729;28;20030;-43
2022/10/13 01:20:08;;;;;;;15.10;11.00;;;10.20;99.90;;;;;;4992495;28;20038;-44
2022/10/13 01:22:55;;;;;;;14.00;10.80;;;10.20;99.90;;;;;;4992218;28;20034;-44
2022/10/13 01:25:42;;;;;;;15.45;10.98;;;10.20;99.90;;;;;;4992791;28;20117;-45
2022/10/13 01:28:46;;;;;;;15.02;11.43;;;10.20;99.90;;;;;;4992351;28;20019;-47
2022/10/13 01:31:33;;;;;;;13.57;11.02;;;10.20;99.90;;;;;;4992283;28;20121;-45
2022/10/13 01:34:26;;;;;;;16.13;11.02;;;10.20;99.90;;;;;;4992183;28;20117;-48
2022/10/13 01:37:02;;;;;;;14.15;10.55;;;10.20;99.90;;;;;;4974274;28;20038;-50
2022/10/13 01:39:41;;;;;;;18.23;10.85;;;10.10;99.90;;;;;;4992131;28;20030;-45
2022/10/13 01:42:23;;;;;;;18.92;11.88;;;10.20;99.90;;;;;;4991773;28;20026;-48
2022/10/13 01:44:53;;;;;;;16.10;11.50;;;10.10;99.90;;;;;;4992110;28;20061;-46
2022/10/13 01:47:20;;;;;;;14.20;11.07;;;10.10;99.90;;;;;;4991791;28;20553;-46
2022/10/13 01:49:49;;;;;;;21.08;13.32;;;10.10;99.90;;;;;;4992210;28;20101;-47
2022/10/13 01:52:17;;;;;;;33.17;13.38;;;10.10;99.90;;;;;;4991638;28;20038;-46
2022/10/13 01:54:49;;;;;;;14.77;12.98;;;10.00;99.90;;;;;;4990675;28;20027;-45
2022/10/13 01:57:34;;;;;;;17.10;12.50;;;10.00;99.90;;;;;;4992087;28;20110;-45
2022/10/13 02:00:20;;;;;;;46.22;13.88;;;10.00;99.90;;;;;;4992097;28;20413;-47
2022/10/13 02:03:03;;;;;;;28.38;14.98;;;9.90;99.90;;;;;;4991375;28;20457;-49
2022/10/13 02:05:59;;;;;;;17.20;13.90;;;10.00;99.90;;;;;;4991885;28;20106;-48
2022/10/13 02:08:32;;;;;;;17.60;13.25;;;9.90;99.90;;;;;;4991886;28;20026;-46
2022/10/13 02:11:06;;;;;;;18.05;12.50;;;10.00;99.90;;;;;;4991763;28;20031;-43
2022/10/13 02:13:35;;;;;;;17.77;12.35;;;10.00;99.90;;;;;;4991734;28;20023;-45
2022/10/13 02:16:01;;;;;;;18.98;14.02;;;10.00;99.90;;;;;;4991837;28;20030;-46
2022/10/13 02:18:31;;;;;;;18.10;13.00;;;9.90;99.90;;;;;;4991976;28;20085;-46
2022/10/13 02:20:58;;;;;;;19.02;12.93;;;9.80;99.90;;;;;;4991706;28;20027;-43
2022/10/13 02:23:24;;;;;;;18.67;10.50;;;9.80;99.90;;;;;;4993799;28;20022;-44
2022/10/13 02:25:50;;;;;;;14.43;11.57;;;9.80;99.90;;;;;;4995363;28;20034;-44
2022/10/13 02:28:16;;;;;;;19.13;11.93;;;9.80;99.90;;;;;;4995727;28;20434;-45
2022/10/13 02:30:44;;;;;;;15.73;11.93;;;9.90;99.90;;;;;;4995256;28;20031;-42
2022/10/13 02:33:11;;;;;;;13.75;11.85;;;10.00;99.90;;;;;;4994968;28;20038;-45
2022/10/13 02:35:36;;;;;;;17.27;11.45;;;9.90;99.90;;;;;;4995157;28;20449;-42
2022/10/13 02:38:02;;;;;;;16.33;12.32;;;9.90;99.90;;;;;;4995171;28;20061;-44
2022/10/13 02:40:28;;;;;;;19.08;12.30;;;9.90;99.90;;;;;;4993487;28;20033;-44
2022/10/13 02:42:53;;;;;;;15.15;12.77;;;9.90;99.90;;;;;;4995159;28;20022;-43
2022/10/13 02:45:19;;;;;;;16.48;12.73;;;9.90;99.90;;;;;;4994563;28;20513;-43
2022/10/13 02:47:45;;;;;;;18.38;12.95;;;9.80;99.90;;;;;;4995047;28;20035;-44
2022/10/13 02:50:10;;;;;;;20.17;13.93;;;9.80;99.90;;;;;;4994949;28;20029;-46
2022/10/13 02:52:36;;;;;;;22.33;12.52;;;9.80;99.90;;;;;;4994378;28;20046;-44
2022/10/13 02:55:02;;;;;;;28.23;14.57;;;9.80;99.90;;;;;;4994903;28;20025;-44
2022/10/13 02:57:28;;;;;;;24.05;14.55;;;9.80;99.90;;;;;;4994824;28;20026;-47
2022/10/13 02:59:54;;;;;;;23.38;14.07;;;9.80;99.90;;;;;;4994510;28;20030;-45
2022/10/13 03:02:19;;;;;;;26.17;14.82;;;9.90;99.90;;;;;;4994324;28;20027;-44
2022/10/13 03:04:45;;;;;;;22.88;14.27;;;9.90;99.90;;;;;;4994777;28;20026;-46
2022/10/13 03:07:11;;;;;;;20.25;13.98;;;9.90;99.90;;;;;;4994795;28;20026;-41
2022/10/13 03:09:36;;;;;;;21.30;14.82;;;9.80;99.90;;;;;;4994516;28;20019;-44
2022/10/13 03:12:02;;;;;;;20.02;14.30;;;9.80;99.90;;;;;;4994208;28;20022;-45
2022/10/13 03:14:27;;;;;;;19.45;14.45;;;9.80;99.90;;;;;;4994503;28;20026;-44
2022/10/13 03:16:53;;;;;;;23.38;15.07;;;9.80;99.90;;;;;;4994568;28;20050;-44
2022/10/13 03:19:18;;;;;;;23.95;14.85;;;9.80;99.90;;;;;;4994390;28;20030;-43
2022/10/13 03:21:44;;;;;;;26.90;15.70;;;9.80;99.90;;;;;;4994471;28;20027;-51
2022/10/13 03:24:09;;;;;;;51.13;16.92;;;9.80;99.90;;;;;;4994194;28;20026;-46
2022/10/13 03:26:35;;;;;;;52.25;17.13;;;9.70;99.90;;;;;;4994430;28;20246;-45
2022/10/13 03:29:01;;;;;;;107.28;19.13;;;9.60;99.90;;;;;;4994454;28;20027;-46
2022/10/13 03:31:27;;;;;;;91.80;17.85;;;9.60;99.90;;;;;;4994396;28;20058;-45
2022/10/13 03:33:53;;;;;;;55.97;20.25;;;9.50;99.90;;;;;;4993341;28;20540;-43
2022/10/13 03:36:19;;;;;;;87.55;18.80;;;9.40;99.90;;;;;;4994181;28;20076;-48
2022/10/13 03:38:44;;;;;;;58.85;19.55;;;9.40;99.90;;;;;;4993981;28;20034;-45
2022/10/13 03:41:12;;;;;;;71.07;20.90;;;9.50;99.90;;;;;;4993976;28;20034;-44
2022/10/13 03:43:39;;;;;;;61.88;22.38;;;9.50;99.90;;;;;;4993856;28;20081;-45
2022/10/13 03:46:06;;;;;;;105.07;21.40;;;9.40;99.90;;;;;;4994064;28;20042;-46
2022/10/13 03:48:33;;;;;;;68.05;20.35;;;9.40;99.90;;;;;;4994011;28;20375;-45
2022/10/13 03:51:02;;;;;;;45.83;20.00;;;9.30;99.90;;;;;;4994473;28;20146;-48
2022/10/13 03:53:28;;;;;;;59.08;19.40;;;9.40;99.90;;;;;;5024996;22;20136;-44
2022/10/13 03:55:55;;;;;;;58.28;20.83;;;9.40;99.90;;;;;;5014852;28;20532;-45
2022/10/13 03:58:22;;;;;;;59.40;19.27;;;9.40;99.90;;;;;;5015278;28;20409;-44
2022/10/13 04:00:48;;;;;;;77.32;18.60;;;9.40;99.90;;;;;;5014961;28;20565;-44
2022/10/13 04:03:14;;;;;;;48.08;15.90;;;9.30;99.90;;;;;;5016308;28;20057;-44
2022/10/13 04:05:40;;;;;;;30.92;16.90;;;9.30;99.90;;;;;;5014190;28;20554;-47
2022/10/13 04:08:06;;;;;;;30.77;15.63;;;9.40;99.90;;;;;;5013462;28;20406;-44
2022/10/13 04:10:31;;;;;;;19.38;15.40;;;9.40;99.90;;;;;;5013359;28;20028;-44
2022/10/13 04:12:57;;;;;;;19.40;14.60;;;9.50;99.90;;;;;;5012796;28;20022;-42
2022/10/13 04:15:22;;;;;;;27.27;15.52;;;9.50;99.90;;;;;;5011928;28;20113;-47
2022/10/13 04:17:48;;;;;;;26.20;14.85;;;9.50;99.90;;;;;;5012971;28;20500;-44
2022/10/13 04:20:14;;;;;;;20.77;14.27;;;9.60;99.90;;;;;;5012937;28;20030;-44
2022/10/13 04:22:39;;;;;;;19.98;15.52;;;9.60;99.90;;;;;;5012645;28;20117;-48
2022/10/13 04:25:06;;;;;;;23.00;14.82;;;9.60;99.90;;;;;;5011904;28;20033;-48
2022/10/13 04:27:31;;;;;;;18.92;14.18;;;9.60;99.90;;;;;;5012676;28;20037;-46
2022/10/13 04:29:57;;;;;;;18.75;13.55;;;9.60;99.90;;;;;;5012712;28;20030;-45
2022/10/13 04:32:23;;;;;;;19.60;14.32;;;9.60;99.90;;;;;;5012562;28;20371;-48
2022/10/13 04:34:48;;;;;;;20.95;14.60;;;9.60;99.90;;;;;;5012679;28;20032;-46
2022/10/13 04:37:14;;;;;;;24.98;14.55;;;9.60;99.90;;;;;;5012522;28;20500;-47
2022/10/13 04:39:39;;;;;;;20.10;14.00;;;10.10;99.90;;;;;;5012304;28;20107;-51
2022/10/13 04:42:05;;;;;;;17.45;13.57;;;9.70;99.90;;;;;;5010701;28;20037;-46
2022/10/13 04:44:31;;;;;;;18.73;13.20;;;9.70;99.90;;;;;;5012553;28;20021;-43
2022/10/13 04:46:57;;;;;;;19.83;15.18;;;9.70;99.90;;;;;;5010293;28;20486;-44
2022/10/13 04:49:23;;;;;;;20.63;14.00;;;9.70;99.90;;;;;;5012661;28;20072;-44
2022/10/13 04:51:49;;;;;;;20.15;13.30;;;9.70;99.90;;;;;;5012346;28;20087;-46
2022/10/13 04:54:14;;;;;;;19.88;14.70;;;9.70;99.90;;;;;;5012438;28;20112;-51
2022/10/13 04:56:40;;;;;;;112.63;18.33;;;9.60;99.90;;;;;;5012217;28;20060;-43
2022/10/13 04:59:05;;;;;;;21.73;15.98;;;9.70;99.90;;;;;;5012265;28;20033;-44
2022/10/13 05:01:31;;;;;;;128.23;17.00;;;9.60;99.90;;;;;;5012637;28;20104;-49
2022/10/13 05:03:59;;;;;;;24.13;14.45;;;9.60;99.90;;;;;;5012187;28;20405;-46
2022/10/13 05:06:32;;;;;;;22.70;14.60;;;9.60;99.90;;;;;;5012622;28;20569;-51
2022/10/13 05:08:57;;;;;;;38.15;15.77;;;9.60;99.90;;;;;;5012464;28;20026;-45
2022/10/13 05:11:25;;;;;;;74.80;15.27;;;9.60;99.90;;;;;;5012035;28;20022;-47
2022/10/13 05:13:51;;;;;;;18.33;14.48;;;9.50;99.90;;;;;;5010287;28;20022;-49
2022/10/13 05:16:18;;;;;;;18.58;13.50;;;9.50;99.90;;;;;;5012087;28;20032;-45
2022/10/13 05:18:44;;;;;;;49.08;17.15;;;9.50;99.90;;;;;;5011827;28;20038;-46
2022/10/13 05:21:11;;;;;;;38.17;17.58;;;9.50;99.90;;;;;;5011847;28;20401;-50
2022/10/13 05:23:37;;;;;;;47.95;18.60;;;9.40;99.90;;;;;;5011437;28;20126;-47
2022/10/13 05:26:08;;;;;;;38.30;18.65;;;9.30;99.90;;;;;;5012318;28;20025;-47
2022/10/13 05:28:34;;;;;;;36.15;21.35;;;9.30;99.90;;;;;;5011703;28;20120;-48
2022/10/13 05:31:14;;;;;;;70.40;22.42;;;9.20;99.90;;;;;;5012120;28;20037;-52
2022/10/13 05:33:41;;;;;;;76.47;20.92;;;9.20;99.90;;;;;;5011790;28;20112;-46
2022/10/13 05:36:10;;;;;;;68.10;21.85;;;9.20;99.90;;;;;;5011606;28;20030;-49
2022/10/13 05:38:36;;;;;;;53.28;21.73;;;9.10;99.90;;;;;;5011876;28;20518;-44
2022/10/13 05:41:12;;;;;;;42.72;20.25;;;9.10;99.90;;;;;;5011742;28;20038;-48
2022/10/13 05:43:40;;;;;;;87.30;20.75;;;9.20;99.90;;;;;;5011503;28;20026;-47
2022/10/13 05:46:06;;;;;;;80.97;20.85;;;9.20;99.90;;;;;;5011685;28;20022;-45
2022/10/13 05:48:32;;;;;;;88.05;20.52;;;9.20;99.90;;;;;;5011770;28;20105;-47
2022/10/13 05:50:59;;;;;;;77.82;21.02;;;9.20;99.90;;;;;;5011621;28;20156;-44
2022/10/13 05:53:28;;;;;;;70.60;21.50;;;9.20;99.90;;;;;;5011238;28;20036;-50
2022/10/13 05:55:56;;;;;;;41.63;21.70;;;9.10;99.90;;;;;;5012196;28;20385;-48
2022/10/13 05:58:22;;;;;;;33.63;22.33;;;9.10;99.90;;;;;;5014356;28;20438;-53
2022/10/13 06:00:48;;;;;;;47.60;22.58;;;9.20;99.90;;;;;;5016292;28;20040;-48
2022/10/13 06:03:19;;;;;;;43.20;20.20;;;9.20;99.90;;;;;;5016065;28;20105;-50
2022/10/13 06:05:48;;;;;;;29.13;19.55;;;9.10;99.90;;;;;;5015601;28;20018;-47
2022/10/13 06:08:14;;;;;;;26.75;19.30;;;9.20;99.90;;;;;;5015516;28;20026;-45
2022/10/13 06:10:41;;;;;;;29.48;18.85;;;9.20;99.90;;;;;;5015441;28;20018;-48
2022/10/13 06:13:08;;;;;;;26.60;19.58;;;9.20;99.90;;;;;;5014803;28;20105;-46
2022/10/13 06:15:34;;;;;;;25.73;19.17;;;9.30;99.90;;;;;;5015080;28;20049;-47
2022/10/13 06:18:00;;;;;;;26.38;18.55;;;9.40;99.90;;;;;;5015102;28;20026;-43
2022/10/13 06:20:26;;;;;;;27.73;19.13;;;9.40;99.90;;;;;;5014988;28;20026;-45
2022/10/13 06:22:54;;;;;;;26.08;18.80;;;9.50;99.90;;;;;;5014682;28;20029;-41
2022/10/13 06:25:19;;;;;;;26.42;18.70;;;9.60;99.90;;;;;;5015188;28;20109;-44
2022/10/13 06:27:45;;;;;;;25.92;17.33;;;9.60;99.90;;;;;;5015017;28;20110;-50
2022/10/13 06:30:10;;;;;;;29.38;20.30;;;9.70;99.90;;;;;;5014617;28;20425;-46
2022/10/13 06:32:36;;;;;;;29.33;18.77;;;9.80;99.90;;;;;;5014395;28;20079;-46
2022/10/13 06:35:03;;;;;;;27.35;17.35;;;9.80;99.90;;;;;;5014636;28;20037;-50
2022/10/13 06:37:29;;;;;;;24.95;17.85;;;9.90;99.90;;;;;;5014603;28;20034;-45
2022/10/13 06:39:54;;;;;;;25.48;17.67;;;9.80;99.90;;;;;;5014592;28;20037;-47
2022/10/13 06:42:20;;;;;;;24.35;16.98;;;9.80;99.90;;;;;;5014264;28;20028;-47
2022/10/13 06:44:45;;;;;;;22.35;16.25;;;9.80;99.90;;;;;;5014511;28;20401;-42
2022/10/13 06:47:11;;;;;;;25.52;17.13;;;9.90;99.90;;;;;;5015237;28;20707;-47
2022/10/13 06:49:36;;;;;;;23.23;16.83;;;9.90;99.90;;;;;;5014543;28;20444;-47
2022/10/13 06:52:03;;;;;;;21.63;15.15;;;9.90;99.90;;;;;;5013850;28;20057;-49
2022/10/13 06:54:29;;;;;;;21.08;15.48;;;10.00;99.90;;;;;;5015044;28;20072;-46
2022/10/13 06:56:55;;;;;;;21.67;15.63;;;10.00;99.90;;;;;;5014592;28;20022;-50
2022/10/13 06:59:20;;;;;;;26.27;17.15;;;10.00;99.90;;;;;;5014650;28;20085;-46
2022/10/13 07:01:47;;;;;;;21.92;16.58;;;10.00;99.90;;;;;;5014537;28;20086;-42
2022/10/13 07:04:14;;;;;;;20.30;14.85;;;10.00;99.90;;;;;;5015037;28;20026;-48
2022/10/13 07:06:40;;;;;;;24.30;16.25;;;10.00;99.90;;;;;;5015345;28;20026;-46
2022/10/13 07:09:06;;;;;;;26.52;16.33;;;10.00;99.90;;;;;;5014012;28;20069;-46
2022/10/13 07:11:32;;;;;;;22.27;17.00;;;10.00;99.90;;;;;;5014517;28;20038;-45
2022/10/13 07:13:58;;;;;;;36.15;15.57;;;10.00;99.90;;;;;;5014288;28;20543;-45
2022/10/13 07:16:23;;;;;;;20.15;14.70;;;10.00;99.90;;;;;;5014085;28;20398;-49
2022/10/13 07:18:49;;;;;;;21.30;14.73;;;10.00;99.90;;;;;;5014272;28;20053;-44
2022/10/13 07:21:15;;;;;;;22.15;15.73;;;10.00;99.90;;;;;;5013971;28;20022;-45
2022/10/13 07:23:41;;;;;;;19.63;13.63;;;10.00;99.90;;;;;;5013605;28;20026;-48
2022/10/13 07:26:12;;;;;;;18.60;13.77;;;10.10;99.90;;;;;;5013920;28;20395;-47
2022/10/13 07:28:39;;;;;;;20.52;15.38;;;10.20;99.90;;;;;;5014001;28;20030;-50
2022/10/13 07:31:19;;;;;;;22.30;15.20;;;10.20;99.90;;;;;;5013840;28;20022;-50
2022/10/13 07:33:47;;;;;;;23.75;16.17;;;10.20;99.90;;;;;;5013730;28;20034;-46
2022/10/13 07:36:13;;;;;;;21.88;15.80;;;10.20;99.90;;;;;;5013986;28;20026;-48
2022/10/13 07:38:39;;;;;;;25.35;16.25;;;10.30;99.90;;;;;;5012769;28;20037;-46
2022/10/13 07:41:08;;;;;;;21.98;15.90;;;10.30;99.90;;;;;;5013811;28;20406;-45
2022/10/13 07:43:33;;;;;;;24.77;16.63;;;10.30;99.90;;;;;;5013849;28;20049;-48
2022/10/13 07:46:00;;;;;;;27.30;17.67;;;10.30;99.90;;;;;;5012340;28;20499;-50
2022/10/13 07:48:26;;;;;;;25.75;16.13;;;10.30;99.90;;;;;;5013426;28;20053;-45
2022/10/13 07:50:52;;;;;;;31.83;17.92;;;10.30;99.90;;;;;;5013530;28;20452;-47
2022/10/13 07:53:17;;;;;;;34.28;18.58;;;10.40;99.90;;;;;;5012996;28;20042;-46
2022/10/13 07:55:43;;;;;;;31.75;18.88;;;10.40;99.90;;;;;;5013662;28;20137;-49
2022/10/13 07:58:09;;;;;;;32.22;18.85;;;10.30;99.90;;;;;;5013791;28;20424;-45
2022/10/13 08:00:35;;;;;;;33.17;17.90;;;10.30;99.90;;;;;;5013363;28;20017;-44
2022/10/13 08:03:01;;;;;;;28.27;16.88;;;10.30;99.90;;;;;;5013164;28;20033;-47
2022/10/13 08:05:26;;;;;;;31.27;18.35;;;10.30;99.90;;;;;;5013872;28;20470;-46
2022/10/13 08:07:52;;;;;;;26.45;16.98;;;10.40;99.90;;;;;;5013196;28;20029;-49
2022/10/13 08:10:18;;;;;;;41.67;20.05;;;10.40;99.90;;;;;;5012016;28;20437;-46
2022/10/13 08:12:43;;;;;;;33.55;20.15;;;10.50;99.90;;;;;;5012784;28;20426;-44
2022/10/13 08:15:09;;;;;;;29.25;17.90;;;10.60;99.90;;;;;;5013738;28;20058;-44
2022/10/13 08:17:35;;;;;;;34.25;20.30;;;10.60;99.90;;;;;;5013834;28;20032;-46
2022/10/13 08:20:01;;;;;;;36.75;19.90;;;10.70;99.90;;;;;;5013004;28;20549;-46
2022/10/13 08:22:27;;;;;;;42.88;21.50;;;10.70;99.90;;;;;;5012756;28;20536;-49
2022/10/13 08:24:53;;;;;;;36.28;20.55;;;10.60;99.90;;;;;;5013056;28;20030;-44
2022/10/13 08:27:21;;;;;;;38.85;20.42;;;10.70;99.90;;;;;;5013059;28;20029;-43
2022/10/13 08:29:47;;;;;;;42.38;21.50;;;10.60;99.90;;;;;;5011696;28;20079;-51
2022/10/13 08:32:12;;;;;;;37.83;20.80;;;10.70;99.90;;;;;;5012495;28;20033;-45
2022/10/13 08:34:38;;;;;;;33.50;19.58;;;10.80;99.90;;;;;;5012575;28;20095;-45
2022/10/13 08:37:03;;;;;;;42.08;20.75;;;10.90;99.90;;;;;;5011332;28;20379;-50
2022/10/13 08:39:30;;;;;;;45.58;23.02;;;11.00;99.90;;;;;;5012959;28;20014;-44
2022/10/13 08:41:56;;;;;;;42.70;22.27;;;11.10;99.90;;;;;;5011167;28;20040;-52
2022/10/13 08:44:35;;;;;;;42.60;22.77;;;11.10;99.90;;;;;;5012990;28;20026;-46
2022/10/13 08:47:09;;;;;;;50.15;22.45;;;11.20;99.90;;;;;;5021619;28;20485;-46
2022/10/13 08:49:34;;;;;;;44.83;22.83;;;11.20;99.90;;;;;;5021908;28;20030;-45
2022/10/13 08:52:03;;;;;;;45.97;23.67;;;11.10;99.90;;;;;;5018967;28;20029;-49
2022/10/13 08:54:29;;;;;;;43.45;22.25;;;11.10;99.90;;;;;;5014903;28;20029;-47
2022/10/13 08:56:55;;;;;;;43.45;22.88;;;11.10;99.90;;;;;;5012535;28;20030;-47
2022/10/13 08:59:20;;;;;;;45.75;24.40;;;11.10;99.90;;;;;;5011086;28;20021;-50
2022/10/13 09:01:50;;;;;;;42.17;23.52;;;11.10;99.90;;;;;;5012564;28;20084;-54
2022/10/13 09:04:35;;;;;;;51.10;24.00;;;11.20;99.90;;;;;;5012113;28;20018;-49
2022/10/13 09:07:25;;;;;;;51.90;26.05;;;11.20;99.90;;;;;;5011137;28;20285;-46
2022/10/13 09:09:52;;;;;;;54.78;26.13;;;11.10;99.90;;;;;;5012307;28;20030;-46
2022/10/13 09:12:23;;;;;;;49.17;25.42;;;11.00;99.90;;;;;;5012140;28;20050;-44
2022/10/13 09:15:00;;;;;;;51.85;25.35;;;11.00;99.90;;;;;;5012572;28;20272;-46
2022/10/13 09:17:26;;;;;;;52.45;24.88;;;11.10;99.90;;;;;;5012576;28;20490;-49
2022/10/13 09:20:02;;;;;;;53.75;26.00;;;11.10;99.90;;;;;;5012596;28;20032;-44
2022/10/13 09:22:30;;;;;;;50.53;26.02;;;11.20;99.90;;;;;;5010673;28;20497;-45
2022/10/13 09:25:14;;;;;;;59.33;26.02;;;11.20;99.90;;;;;;5012381;28;20041;-52
2022/10/13 09:27:44;;;;;;;53.95;25.23;;;11.20;99.90;;;;;;5012389;28;20030;-48
2022/10/13 09:30:34;;;;;;;49.00;24.02;;;11.20;99.90;;;;;;5012286;28;20034;-46
2022/10/13 09:33:22;;;;;;;57.03;27.55;;;11.20;99.90;;;;;;5011068;28;20036;-51
2022/10/13 09:36:11;;;;;;;48.25;26.08;;;11.20;99.90;;;;;;5010843;28;20034;-46
2022/10/13 09:38:38;;;;;;;57.22;26.67;;;11.30;99.90;;;;;;5011781;28;20033;-45
2022/10/13 09:41:09;;;;;;;60.63;29.00;;;11.30;99.90;;;;;;5011886;28;20025;-44
2022/10/13 09:43:57;;;;;;;67.85;28.27;;;11.30;99.90;;;;;;5011868;28;20446;-43
2022/10/13 09:46:30;;;;;;;57.53;27.98;;;11.30;99.90;;;;;;5012160;28;20024;-45
2022/10/13 09:49:18;;;;;;;58.83;28.90;;;11.40;99.90;;;;;;5012603;28;20022;-47
2022/10/13 09:51:45;;;;;;;69.90;31.08;;;11.40;99.90;;;;;;5011777;28;20139;-48
2022/10/13 09:54:24;;;;;;;70.43;31.40;;;11.40;99.90;;;;;;5032827;22;20042;-45
2022/10/13 09:56:57;;;;;;;65.28;30.45;;;11.50;99.90;;;;;;5011540;28;20022;-45
2022/10/13 09:59:30;;;;;;;64.35;29.42;;;11.50;99.90;;;;;;5010080;28;20117;-46
2022/10/13 10:01:57;;;;;;;73.75;32.50;;;11.50;99.90;;;;;;5011243;28;20206;-46
2022/10/13 10:04:28;;;;;;;66.53;31.15;;;11.50;99.90;;;;;;5009980;28;20460;-47
2022/10/13 10:06:54;;;;;;;75.95;30.98;;;11.60;99.90;;;;;;5011450;28;20097;-50
2022/10/13 10:09:32;;;;;;;65.40;31.50;;;11.60;99.90;;;;;;5011096;28;20510;-47
2022/10/13 10:11:59;;;;;;;72.03;32.70;;;11.70;99.90;;;;;;5010878;28;20516;-44
2022/10/13 10:14:27;;;;;;;77.65;33.20;;;11.70;99.90;;;;;;5011087;28;20096;-48
2022/10/13 10:17:18;;;;;;;67.70;32.67;;;11.80;99.90;;;;;;5011234;28;20394;-46
2022/10/13 10:20:21;;;;;;;76.45;34.30;;;11.80;99.90;;;;;;5009910;28;20045;-42
2022/10/13 10:23:03;;;;;;;74.57;32.28;;;11.80;99.90;;;;;;5011047;28;20025;-50
2022/10/13 10:25:38;;;;;;;93.03;43.42;;;11.80;99.90;;;;;;5011248;28;20026;-48
2022/10/13 10:28:22;;;;;;;176.82;103.55;;;11.90;99.90;;;;;;5011125;28;20018;-45
2022/10/13 10:30:56;;;;;;;74.70;36.35;;;11.90;99.90;;;;;;5011165;28;20030;-47
2022/10/13 10:33:41;;;;;;;76.97;36.78;;;11.90;99.90;;;;;;5010770;28;20469;-47
2022/10/13 10:36:20;;;;;;;78.00;36.65;;;11.90;99.90;;;;;;5011093;28;20551;-46
2022/10/13 10:39:16;;;;;;;77.35;36.28;;;12.00;99.90;;;;;;5011068;28;20038;-45
2022/10/13 10:42:01;;;;;;;71.95;37.50;;;12.00;99.90;;;;;;5011034;28;20034;-47
2022/10/13 10:44:35;;;;;;;72.15;36.38;;;12.10;99.90;;;;;;5011869;28;20040;-47
2022/10/13 10:47:10;;;;;;;77.97;37.95;;;12.20;99.90;;;;;;5014505;28;20030;-47
2022/10/13 10:49:39;;;;;;;72.85;36.22;;;12.30;99.90;;;;;;5014420;28;20029;-45
2022/10/13 10:52:09;;;;;;;74.57;36.83;;;12.50;99.90;;;;;;5014494;28;20393;-46
2022/10/13 10:55:14;;;;;;;69.57;36.58;;;12.60;99.90;;;;;;5014310;28;20116;-45
2022/10/13 10:57:56;;;;;;;71.68;36.22;;;12.70;99.90;;;;;;5005728;28;20041;-44
2022/10/13 11:00:22;;;;;;;70.90;35.97;;;12.90;99.90;;;;;;5014029;28;20068;-49
2022/10/13 11:02:55;;;;;;;56.00;32.25;;;13.10;99.90;;;;;;5013921;28;20032;-46
2022/10/13 11:05:20;;;;;;;63.70;32.95;;;13.30;99.90;;;;;;5014267;28;20033;-48
2022/10/13 11:07:46;;;;;;;52.33;30.33;;;13.50;99.90;;;;;;5014168;28;20030;-47
2022/10/13 11:10:15;;;;;;;60.75;31.35;;;13.60;99.90;;;;;;5013943;28;20080;-46
2022/10/13 11:13:13;;;;;;;44.15;27.25;;;13.70;99.90;;;;;;5013736;28;20445;-50
2022/10/13 11:15:44;;;;;;;42.22;26.98;;;13.80;99.90;;;;;;5014158;28;20026;-46
2022/10/13 11:18:57;;;;;;;50.55;28.67;;;13.90;99.90;;;;;;5012522;28;20497;-44
2022/10/13 11:21:23;;;;;;;48.83;26.70;;;14.00;99.90;;;;;;5012889;28;20037;-47
2022/10/13 11:23:54;;;;;;;45.13;27.08;;;14.10;99.90;;;;;;5013016;28;20486;-44
2022/10/13 11:26:41;;;;;;;45.80;27.65;;;14.10;99.90;;;;;;5012264;28;20022;-48
2022/10/13 11:29:18;;;;;;;44.53;28.67;;;14.10;99.90;;;;;;5012375;28;20379;-46
2022/10/13 11:31:53;;;;;;;48.03;29.13;;;14.00;99.90;;;;;;5011866;28;20022;-46
2022/10/13 11:34:27;;;;;;;47.78;28.52;;;14.00;99.90;;;;;;5011670;28;20034;-48
2022/10/13 11:36:58;;;;;;;49.60;29.13;;;13.90;99.90;;;;;;5012909;28;20084;-44
2022/10/13 11:39:27;;;;;;;42.78;29.50;;;13.90;99.90;;;;;;5012732;28;20092;-46
2022/10/13 11:42:12;;;;;;;49.85;27.88;;;13.90;99.90;;;;;;5012708;28;20502;-45
2022/10/13 11:44:48;;;;;;;48.63;27.73;;;13.90;99.90;;;;;;5013242;28;20034;-47
2022/10/13 11:47:34;;;;;;;71.13;45.15;;;13.90;99.90;;;;;;5011784;28;20044;-48
2022/10/13 11:50:17;;;;;;;42.75;28.48;;;13.90;99.90;;;;;;5013500;28;20032;-45
2022/10/13 11:53:03;;;;;;;43.03;25.33;;;14.00;99.90;;;;;;5013066;28;20061;-48
2022/10/13 11:55:44;;;;;;;45.22;26.17;;;14.00;99.90;;;;;;5012826;28;20053;-48
2022/10/13 11:58:20;;;;;;;42.78;25.30;;;14.00;99.90;;;;;;5013290;28;20025;-47
2022/10/13 12:00:56;;;;;;;;;;;14.10;99.90;;;;;;5013529;28;20022;-52
2022/10/13 12:03:33;;;;;;;38.75;23.23;;;14.20;99.90;;;;;;5012790;28;19905;-49
2022/10/13 12:06:03;;;;;;;35.58;22.48;;;14.30;99.90;;;;;;5013041;28;20568;-46
2022/10/13 12:08:32;;;;;;;36.97;24.92;;;14.30;99.90;;;;;;5013055;28;20486;-46
2022/10/13 12:11:00;;;;;;;37.28;22.58;;;14.40;99.90;;;;;;5013101;28;20379;-43
2022/10/13 12:13:29;;;;;;;33.17;22.17;;;14.50;99.90;;;;;;5013141;28;20633;-44
2022/10/13 12:16:02;;;;;;;35.63;22.90;;;14.50;99.90;;;;;;5012849;28;20053;-44
2022/10/13 12:18:35;;;;;;;35.05;23.23;;;14.50;99.90;;;;;;5012778;28;20061;-45
2022/10/13 12:21:07;;;;;;;38.42;23.65;;;14.50;99.90;;;;;;5012949;28;20026;-46
2022/10/13 12:23:33;;;;;;;33.50;22.38;;;14.50;99.90;;;;;;5012366;28;20061;-49
2022/10/13 12:25:59;;;;;;;31.83;21.02;;;14.50;99.90;;;;;;5012700;28;20068;-45
2022/10/13 12:28:49;;;;;;;34.70;20.45;;;14.50;99.90;;;;;;5012580;28;20014;-44
2022/10/13 12:31:23;;;;;;;35.70;20.20;;;14.60;99.90;;;;;;5013171;28;20026;-48
2022/10/13 12:34:00;;;;;;;28.88;19.75;;;14.80;99.90;;;;;;5012388;28;20481;-46
2022/10/13 12:36:31;;;;;;;33.40;20.50;;;14.80;99.90;;;;;;5011104;28;20065;-45
2022/10/13 12:39:09;;;;;;;36.95;22.27;;;14.80;99.90;;;;;;5011230;28;20148;-45
2022/10/13 12:41:37;;;;;;;30.75;20.77;;;14.90;99.90;;;;;;5011736;28;20038;-55
2022/10/13 12:44:03;;;;;;;61.92;42.80;;;15.00;99.90;;;;;;5011762;28;20088;-48
2022/10/13 12:46:40;;;;;;;147.57;111.95;;;15.00;99.90;;;;;;5012440;28;20034;-51
2022/10/13 12:49:12;;;;;;;36.58;25.70;;;15.00;99.90;;;;;;5011029;28;20394;-50